sensor_id;sensor_type;location;lat;lon;timestamp;P1;durP1;ratioP1;P2;durP2;ratioP2
18013;SDS011;9132;47.946;10.394;2023-02-19T00:00:01;2.23;;;2.00;;
18013;SDS011;9132;47.946;10.394;2023-02-19T00:02:27;2.10;;;1.90;;
18013;SDS011;9132;47.946;10.394;2023-02-19T00:04:54;2.20;;;1.90;;
18013;SDS011;9132;47.946;10.394;2023-02-19T00:07:20;2.00;;;1.80;;
18013;SDS011;9132;47.946;10.394;2023-02-19T00:09:46;2.60;;;1.90;;
18013;SDS011;9132;47.946;10.394;2023-02-19T00:12:12;1.77;;;1.67;;
18013;SDS011;9132;47.946;10.394;2023-02-19T00:14:40;2.00;;;1.80;;
18013;SDS011;9132;47.946;10.394;2023-02-19T00:17:06;1.87;;;1.67;;
18013;SDS011;9132;47.946;10.394;2023-02-19T00:19:33;2.17;;;1.80;;
18013;SDS011;9132;47.946;10.394;2023-02-19T00:21:59;2.00;;;1.80;;
18013;SDS011;9132;47.946;10.394;2023-02-19T00:24:25;2.10;;;1.90;;
18013;SDS011;9132;47.946;10.394;2023-02-19T00:26:52;1.90;;;1.73;;
18013;SDS011;9132;47.946;10.394;2023-02-19T00:29:19;2.20;;;1.80;;
18013;SDS011;9132;47.946;10.394;2023-02-19T00:31:47;2.07;;;1.60;;
18013;SDS011;9132;47.946;10.394;2023-02-19T00:34:13;2.10;;;1.90;;
18013;SDS011;9132;47.946;10.394;2023-02-19T00:36:40;2.83;;;1.73;;
18013;SDS011;9132;47.946;10.394;2023-02-19T00:39:06;2.10;;;1.77;;
18013;SDS011;9132;47.946;10.394;2023-02-19T00:41:33;1.80;;;1.70;;
18013;SDS011;9132;47.946;10.394;2023-02-19T00:44:00;2.33;;;1.90;;
18013;SDS011;9132;47.946;10.394;2023-02-19T00:46:27;3.30;;;2.07;;
18013;SDS011;9132;47.946;10.394;2023-02-19T00:48:56;3.73;;;1.90;;
18013;SDS011;9132;47.946;10.394;2023-02-19T00:51:24;2.90;;;1.70;;
18013;SDS011;9132;47.946;10.394;2023-02-19T00:53:51;2.93;;;1.73;;
18013;SDS011;9132;47.946;10.394;2023-02-19T00:56:17;2.27;;;1.87;;
18013;SDS011;9132;47.946;10.394;2023-02-19T00:58:44;3.00;;;2.00;;
18013;SDS011;9132;47.946;10.394;2023-02-19T01:01:10;2.00;;;1.80;;
18013;SDS011;9132;47.946;10.394;2023-02-19T01:03:37;3.37;;;1.60;;
18013;SDS011;9132;47.946;10.394;2023-02-19T01:06:06;2.90;;;1.93;;
18013;SDS011;9132;47.946;10.394;2023-02-19T01:08:33;3.27;;;1.80;;
18013;SDS011;9132;47.946;10.394;2023-02-19T01:11:00;2.87;;;1.50;;
18013;SDS011;9132;47.946;10.394;2023-02-19T01:13:27;1.50;;;1.40;;
18013;SDS011;9132;47.946;10.394;2023-02-19T01:15:53;1.70;;;1.60;;
18013;SDS011;9132;47.946;10.394;2023-02-19T01:18:19;2.53;;;1.93;;
18013;SDS011;9132;47.946;10.394;2023-02-19T01:20:46;2.10;;;1.60;;
18013;SDS011;9132;47.946;10.394;2023-02-19T01:23:13;1.80;;;1.60;;
18013;SDS011;9132;47.946;10.394;2023-02-19T01:25:40;2.60;;;2.00;;
18013;SDS011;9132;47.946;10.394;2023-02-19T01:28:07;3.23;;;1.87;;
18013;SDS011;9132;47.946;10.394;2023-02-19T01:30:33;2.00;;;1.77;;
18013;SDS011;9132;47.946;10.394;2023-02-19T01:33:01;1.83;;;1.50;;
18013;SDS011;9132;47.946;10.394;2023-02-19T01:35:27;1.73;;;1.60;;
18013;SDS011;9132;47.946;10.394;2023-02-19T01:37:53;3.53;;;1.67;;
18013;SDS011;9132;47.946;10.394;2023-02-19T01:40:21;2.20;;;1.63;;
18013;SDS011;9132;47.946;10.394;2023-02-19T01:42:47;2.13;;;1.77;;
18013;SDS011;9132;47.946;10.394;2023-02-19T01:45:20;2.07;;;1.70;;
18013;SDS011;9132;47.946;10.394;2023-02-19T01:47:48;2.27;;;1.77;;
18013;SDS011;9132;47.946;10.394;2023-02-19T01:50:16;2.00;;;1.80;;
18013;SDS011;9132;47.946;10.394;2023-02-19T01:52:42;1.60;;;1.50;;
18013;SDS011;9132;47.946;10.394;2023-02-19T01:55:09;1.60;;;1.40;;
18013;SDS011;9132;47.946;10.394;2023-02-19T01:57:38;2.67;;;1.73;;
18013;SDS011;9132;47.946;10.394;2023-02-19T02:00:08;2.20;;;1.83;;
18013;SDS011;9132;47.946;10.394;2023-02-19T02:02:35;4.47;;;1.70;;
18013;SDS011;9132;47.946;10.394;2023-02-19T02:05:02;2.40;;;1.70;;
18013;SDS011;9132;47.946;10.394;2023-02-19T02:07:28;2.50;;;1.47;;
18013;SDS011;9132;47.946;10.394;2023-02-19T02:10:12;1.57;;;1.47;;
18013;SDS011;9132;47.946;10.394;2023-02-19T02:12:50;1.80;;;1.60;;
18013;SDS011;9132;47.946;10.394;2023-02-19T02:15:17;2.00;;;1.50;;
18013;SDS011;9132;47.946;10.394;2023-02-19T02:17:46;1.90;;;1.70;;
18013;SDS011;9132;47.946;10.394;2023-02-19T02:20:21;1.67;;;1.50;;
18013;SDS011;9132;47.946;10.394;2023-02-19T02:22:51;2.90;;;1.90;;
18013;SDS011;9132;47.946;10.394;2023-02-19T02:25:23;1.70;;;1.60;;
18013;SDS011;9132;47.946;10.394;2023-02-19T02:27:58;2.20;;;1.50;;
18013;SDS011;9132;47.946;10.394;2023-02-19T02:30:32;2.73;;;1.63;;
18013;SDS011;9132;47.946;10.394;2023-02-19T02:33:03;1.80;;;1.70;;
18013;SDS011;9132;47.946;10.394;2023-02-19T02:35:33;2.23;;;1.67;;
18013;SDS011;9132;47.946;10.394;2023-02-19T02:38:01;1.90;;;1.50;;
18013;SDS011;9132;47.946;10.394;2023-02-19T02:40:30;1.70;;;1.60;;
18013;SDS011;9132;47.946;10.394;2023-02-19T02:42:56;2.10;;;1.90;;
18013;SDS011;9132;47.946;10.394;2023-02-19T02:45:25;2.07;;;1.87;;
18013;SDS011;9132;47.946;10.394;2023-02-19T02:48:02;1.60;;;1.50;;
18013;SDS011;9132;47.946;10.394;2023-02-19T02:50:31;3.80;;;1.63;;
18013;SDS011;9132;47.946;10.394;2023-02-19T02:53:00;1.97;;;1.53;;
18013;SDS011;9132;47.946;10.394;2023-02-19T02:55:45;1.77;;;1.67;;
18013;SDS011;9132;47.946;10.394;2023-02-19T02:58:13;1.60;;;1.50;;
18013;SDS011;9132;47.946;10.394;2023-02-19T03:00:41;2.13;;;1.73;;
18013;SDS011;9132;47.946;10.394;2023-02-19T03:03:27;1.67;;;1.50;;
18013;SDS011;9132;47.946;10.394;2023-02-19T03:05:57;2.33;;;1.70;;
18013;SDS011;9132;47.946;10.394;2023-02-19T03:08:27;1.63;;;1.37;;
18013;SDS011;9132;47.946;10.394;2023-02-19T03:10:55;2.90;;;1.87;;
18013;SDS011;9132;47.946;10.394;2023-02-19T03:13:25;1.83;;;1.47;;
18013;SDS011;9132;47.946;10.394;2023-02-19T03:16:10;1.83;;;1.60;;
18013;SDS011;9132;47.946;10.394;2023-02-19T03:18:57;2.10;;;1.70;;
18013;SDS011;9132;47.946;10.394;2023-02-19T03:21:41;2.37;;;1.60;;
18013;SDS011;9132;47.946;10.394;2023-02-19T03:24:09;2.47;;;1.60;;
18013;SDS011;9132;47.946;10.394;2023-02-19T03:26:53;2.37;;;1.73;;
18013;SDS011;9132;47.946;10.394;2023-02-19T03:29:20;2.10;;;1.90;;
18013;SDS011;9132;47.946;10.394;2023-02-19T03:31:50;1.70;;;1.60;;
18013;SDS011;9132;47.946;10.394;2023-02-19T03:34:19;2.47;;;1.57;;
18013;SDS011;9132;47.946;10.394;2023-02-19T03:36:49;1.90;;;1.57;;
18013;SDS011;9132;47.946;10.394;2023-02-19T03:39:19;2.90;;;1.73;;
18013;SDS011;9132;47.946;10.394;2023-02-19T03:41:47;1.93;;;1.83;;
18013;SDS011;9132;47.946;10.394;2023-02-19T03:44:15;1.80;;;1.60;;
18013;SDS011;9132;47.946;10.394;2023-02-19T03:46:43;2.20;;;1.97;;
18013;SDS011;9132;47.946;10.394;2023-02-19T03:49:12;2.47;;;2.10;;
18013;SDS011;9132;47.946;10.394;2023-02-19T03:51:43;2.40;;;2.00;;
18013;SDS011;9132;47.946;10.394;2023-02-19T03:54:10;2.37;;;1.90;;
18013;SDS011;9132;47.946;10.394;2023-02-19T03:56:41;2.30;;;2.10;;
18013;SDS011;9132;47.946;10.394;2023-02-19T03:59:09;2.00;;;1.70;;
18013;SDS011;9132;47.946;10.394;2023-02-19T04:01:38;2.33;;;1.97;;
18013;SDS011;9132;47.946;10.394;2023-02-19T04:04:07;2.50;;;2.10;;
18013;SDS011;9132;47.946;10.394;2023-02-19T04:06:34;6.80;;;2.20;;
18013;SDS011;9132;47.946;10.394;2023-02-19T04:09:03;2.27;;;1.77;;
18013;SDS011;9132;47.946;10.394;2023-02-19T04:11:31;2.10;;;1.90;;
18013;SDS011;9132;47.946;10.394;2023-02-19T04:13:59;2.83;;;1.90;;
18013;SDS011;9132;47.946;10.394;2023-02-19T04:16:27;3.17;;;2.43;;
18013;SDS011;9132;47.946;10.394;2023-02-19T04:18:55;4.03;;;2.50;;
18013;SDS011;9132;47.946;10.394;2023-02-19T04:21:23;2.60;;;2.40;;
18013;SDS011;9132;47.946;10.394;2023-02-19T04:23:49;2.57;;;2.27;;
18013;SDS011;9132;47.946;10.394;2023-02-19T04:26:17;3.93;;;2.57;;
18013;SDS011;9132;47.946;10.394;2023-02-19T04:28:45;3.37;;;2.40;;
18013;SDS011;9132;47.946;10.394;2023-02-19T04:31:11;2.57;;;2.33;;
18013;SDS011;9132;47.946;10.394;2023-02-19T04:33:38;2.83;;;2.63;;
18013;SDS011;9132;47.946;10.394;2023-02-19T04:36:05;2.60;;;2.40;;
18013;SDS011;9132;47.946;10.394;2023-02-19T04:38:32;2.93;;;2.63;;
18013;SDS011;9132;47.946;10.394;2023-02-19T04:40:58;3.43;;;2.57;;
18013;SDS011;9132;47.946;10.394;2023-02-19T04:43:26;2.70;;;2.50;;
18013;SDS011;9132;47.946;10.394;2023-02-19T04:45:52;3.03;;;2.73;;
18013;SDS011;9132;47.946;10.394;2023-02-19T04:48:19;3.20;;;2.87;;
18013;SDS011;9132;47.946;10.394;2023-02-19T04:50:45;4.57;;;2.50;;
18013;SDS011;9132;47.946;10.394;2023-02-19T04:53:11;3.43;;;2.57;;
18013;SDS011;9132;47.946;10.394;2023-02-19T04:55:38;3.50;;;2.70;;
18013;SDS011;9132;47.946;10.394;2023-02-19T04:58:04;3.37;;;2.63;;
18013;SDS011;9132;47.946;10.394;2023-02-19T05:00:32;2.87;;;2.60;;
18013;SDS011;9132;47.946;10.394;2023-02-19T05:02:58;2.97;;;2.67;;
18013;SDS011;9132;47.946;10.394;2023-02-19T05:05:25;2.83;;;2.43;;
18013;SDS011;9132;47.946;10.394;2023-02-19T05:07:51;3.13;;;2.83;;
18013;SDS011;9132;47.946;10.394;2023-02-19T05:10:17;5.13;;;3.10;;
18013;SDS011;9132;47.946;10.394;2023-02-19T05:12:44;3.00;;;2.40;;
18013;SDS011;9132;47.946;10.394;2023-02-19T05:15:10;3.07;;;2.77;;
18013;SDS011;9132;47.946;10.394;2023-02-19T05:17:38;2.63;;;2.43;;
18013;SDS011;9132;47.946;10.394;2023-02-19T05:20:04;2.60;;;2.40;;
18013;SDS011;9132;47.946;10.394;2023-02-19T05:22:30;3.47;;;2.90;;
18013;SDS011;9132;47.946;10.394;2023-02-19T05:24:57;3.30;;;3.00;;
18013;SDS011;9132;47.946;10.394;2023-02-19T05:27:23;2.93;;;2.67;;
18013;SDS011;9132;47.946;10.394;2023-02-19T05:29:49;2.63;;;2.43;;
18013;SDS011;9132;47.946;10.394;2023-02-19T05:32:16;3.57;;;2.77;;
18013;SDS011;9132;47.946;10.394;2023-02-19T05:34:43;3.30;;;2.70;;
18013;SDS011;9132;47.946;10.394;2023-02-19T05:37:10;3.47;;;2.50;;
18013;SDS011;9132;47.946;10.394;2023-02-19T05:39:36;4.07;;;2.83;;
18013;SDS011;9132;47.946;10.394;2023-02-19T05:42:02;3.77;;;3.00;;
18013;SDS011;9132;47.946;10.394;2023-02-19T05:44:29;2.93;;;2.40;;
18013;SDS011;9132;47.946;10.394;2023-02-19T05:46:55;3.00;;;2.70;;
18013;SDS011;9132;47.946;10.394;2023-02-19T05:49:21;4.63;;;3.13;;
18013;SDS011;9132;47.946;10.394;2023-02-19T05:51:50;3.47;;;2.90;;
18013;SDS011;9132;47.946;10.394;2023-02-19T05:54:16;3.37;;;3.07;;
18013;SDS011;9132;47.946;10.394;2023-02-19T05:56:42;3.23;;;2.77;;
18013;SDS011;9132;47.946;10.394;2023-02-19T05:59:13;3.30;;;3.00;;
18013;SDS011;9132;47.946;10.394;2023-02-19T06:01:39;3.60;;;3.00;;
18013;SDS011;9132;47.946;10.394;2023-02-19T06:04:06;3.17;;;2.63;;
18013;SDS011;9132;47.946;10.394;2023-02-19T06:06:32;3.33;;;2.93;;
18013;SDS011;9132;47.946;10.394;2023-02-19T06:09:00;3.10;;;2.80;;
18013;SDS011;9132;47.946;10.394;2023-02-19T06:11:27;3.50;;;3.10;;
18013;SDS011;9132;47.946;10.394;2023-02-19T06:13:54;4.13;;;2.83;;
18013;SDS011;9132;47.946;10.394;2023-02-19T06:16:20;3.10;;;2.80;;
18013;SDS011;9132;47.946;10.394;2023-02-19T06:18:47;3.10;;;2.80;;
18013;SDS011;9132;47.946;10.394;2023-02-19T06:21:13;3.57;;;2.80;;
18013;SDS011;9132;47.946;10.394;2023-02-19T06:23:40;3.00;;;2.70;;
18013;SDS011;9132;47.946;10.394;2023-02-19T06:26:09;2.93;;;2.70;;
18013;SDS011;9132;47.946;10.394;2023-02-19T06:28:35;3.00;;;2.70;;
18013;SDS011;9132;47.946;10.394;2023-02-19T06:31:02;4.23;;;3.00;;
18013;SDS011;9132;47.946;10.394;2023-02-19T06:33:28;3.00;;;2.70;;
18013;SDS011;9132;47.946;10.394;2023-02-19T06:35:56;3.57;;;2.50;;
18013;SDS011;9132;47.946;10.394;2023-02-19T06:38:22;3.00;;;2.70;;
18013;SDS011;9132;47.946;10.394;2023-02-19T06:40:49;4.07;;;3.17;;
18013;SDS011;9132;47.946;10.394;2023-02-19T06:43:16;3.20;;;2.90;;
18013;SDS011;9132;47.946;10.394;2023-02-19T06:45:43;3.20;;;2.83;;
18013;SDS011;9132;47.946;10.394;2023-02-19T06:48:09;4.17;;;3.23;;
18013;SDS011;9132;47.946;10.394;2023-02-19T06:50:35;3.40;;;3.00;;
18013;SDS011;9132;47.946;10.394;2023-02-19T06:53:02;3.13;;;2.83;;
18013;SDS011;9132;47.946;10.394;2023-02-19T06:55:28;3.07;;;2.70;;
18013;SDS011;9132;47.946;10.394;2023-02-19T06:57:54;3.63;;;3.33;;
18013;SDS011;9132;47.946;10.394;2023-02-19T07:00:22;3.30;;;2.70;;
18013;SDS011;9132;47.946;10.394;2023-02-19T07:02:48;3.33;;;3.03;;
18013;SDS011;9132;47.946;10.394;2023-02-19T07:05:20;4.27;;;2.67;;
18013;SDS011;9132;47.946;10.394;2023-02-19T07:07:46;3.20;;;2.83;;
18013;SDS011;9132;47.946;10.394;2023-02-19T07:10:13;3.00;;;2.60;;
18013;SDS011;9132;47.946;10.394;2023-02-19T07:12:39;2.87;;;2.67;;
18013;SDS011;9132;47.946;10.394;2023-02-19T07:15:05;3.87;;;2.90;;
18013;SDS011;9132;47.946;10.394;2023-02-19T07:17:34;4.10;;;3.50;;
18013;SDS011;9132;47.946;10.394;2023-02-19T07:20:00;3.27;;;2.97;;
18013;SDS011;9132;47.946;10.394;2023-02-19T07:22:26;2.97;;;2.67;;
18013;SDS011;9132;47.946;10.394;2023-02-19T07:24:53;2.93;;;2.70;;
18013;SDS011;9132;47.946;10.394;2023-02-19T07:27:19;3.90;;;2.70;;
18013;SDS011;9132;47.946;10.394;2023-02-19T07:29:45;3.27;;;2.97;;
18013;SDS011;9132;47.946;10.394;2023-02-19T07:32:12;3.67;;;2.53;;
18013;SDS011;9132;47.946;10.394;2023-02-19T07:34:39;3.13;;;2.83;;
18013;SDS011;9132;47.946;10.394;2023-02-19T07:37:05;3.63;;;3.33;;
18013;SDS011;9132;47.946;10.394;2023-02-19T07:39:32;3.53;;;3.23;;
18013;SDS011;9132;47.946;10.394;2023-02-19T07:41:58;3.00;;;2.80;;
18013;SDS011;9132;47.946;10.394;2023-02-19T07:44:25;3.50;;;2.90;;
18013;SDS011;9132;47.946;10.394;2023-02-19T07:46:51;4.27;;;3.20;;
18013;SDS011;9132;47.946;10.394;2023-02-19T07:49:17;3.60;;;3.03;;
18013;SDS011;9132;47.946;10.394;2023-02-19T07:51:45;3.40;;;2.93;;
18013;SDS011;9132;47.946;10.394;2023-02-19T07:54:11;3.53;;;3.17;;
18013;SDS011;9132;47.946;10.394;2023-02-19T07:56:38;4.83;;;3.33;;
18013;SDS011;9132;47.946;10.394;2023-02-19T07:59:04;2.90;;;2.70;;
18013;SDS011;9132;47.946;10.394;2023-02-19T08:01:30;4.13;;;3.73;;
18013;SDS011;9132;47.946;10.394;2023-02-19T08:04:14;3.00;;;2.70;;
18013;SDS011;9132;47.946;10.394;2023-02-19T08:06:41;3.00;;;2.70;;
18013;SDS011;9132;47.946;10.394;2023-02-19T08:09:09;3.43;;;3.00;;
18013;SDS011;9132;47.946;10.394;2023-02-19T08:11:35;3.63;;;2.50;;
18013;SDS011;9132;47.946;10.394;2023-02-19T08:14:22;3.23;;;2.93;;
18013;SDS011;9132;47.946;10.394;2023-02-19T08:16:49;3.47;;;3.00;;
18013;SDS011;9132;47.946;10.394;2023-02-19T08:19:16;3.40;;;3.10;;
18013;SDS011;9132;47.946;10.394;2023-02-19T08:21:42;2.93;;;2.63;;
18013;SDS011;9132;47.946;10.394;2023-02-19T08:24:10;3.30;;;2.70;;
18013;SDS011;9132;47.946;10.394;2023-02-19T08:26:36;3.47;;;3.17;;
18013;SDS011;9132;47.946;10.394;2023-02-19T08:29:03;2.93;;;2.73;;
18013;SDS011;9132;47.946;10.394;2023-02-19T08:31:29;2.97;;;2.67;;
18013;SDS011;9132;47.946;10.394;2023-02-19T08:33:56;3.33;;;2.83;;
18013;SDS011;9132;47.946;10.394;2023-02-19T08:36:22;3.03;;;2.40;;
18013;SDS011;9132;47.946;10.394;2023-02-19T08:38:48;3.00;;;2.70;;
18013;SDS011;9132;47.946;10.394;2023-02-19T08:41:16;2.67;;;2.47;;
18013;SDS011;9132;47.946;10.394;2023-02-19T08:43:42;2.80;;;2.60;;
18013;SDS011;9132;47.946;10.394;2023-02-19T08:46:09;3.20;;;2.83;;
18013;SDS011;9132;47.946;10.394;2023-02-19T08:48:36;3.77;;;3.00;;
18013;SDS011;9132;47.946;10.394;2023-02-19T08:51:03;3.87;;;2.80;;
18013;SDS011;9132;47.946;10.394;2023-02-19T08:53:32;4.33;;;2.80;;
18013;SDS011;9132;47.946;10.394;2023-02-19T08:56:03;3.67;;;2.60;;
18013;SDS011;9132;47.946;10.394;2023-02-19T08:58:31;3.40;;;3.10;;
18013;SDS011;9132;47.946;10.394;2023-02-19T09:00:57;3.63;;;3.10;;
18013;SDS011;9132;47.946;10.394;2023-02-19T09:03:24;4.00;;;3.00;;
18013;SDS011;9132;47.946;10.394;2023-02-19T09:05:50;3.00;;;2.80;;
18013;SDS011;9132;47.946;10.394;2023-02-19T09:08:17;3.17;;;2.90;;
18013;SDS011;9132;47.946;10.394;2023-02-19T09:10:43;3.30;;;3.00;;
18013;SDS011;9132;47.946;10.394;2023-02-19T09:13:09;2.93;;;2.73;;
18013;SDS011;9132;47.946;10.394;2023-02-19T09:15:37;3.00;;;2.70;;
18013;SDS011;9132;47.946;10.394;2023-02-19T09:18:03;2.80;;;2.60;;
18013;SDS011;9132;47.946;10.394;2023-02-19T09:20:30;3.00;;;2.67;;
18013;SDS011;9132;47.946;10.394;2023-02-19T09:22:56;2.90;;;2.60;;
18013;SDS011;9132;47.946;10.394;2023-02-19T09:25:23;3.13;;;2.83;;
18013;SDS011;9132;47.946;10.394;2023-02-19T09:27:52;2.70;;;2.50;;
18013;SDS011;9132;47.946;10.394;2023-02-19T09:30:19;3.27;;;2.97;;
18013;SDS011;9132;47.946;10.394;2023-02-19T09:32:46;2.47;;;2.20;;
18013;SDS011;9132;47.946;10.394;2023-02-19T09:35:13;3.23;;;2.50;;
18013;SDS011;9132;47.946;10.394;2023-02-19T09:37:39;2.47;;;2.27;;
18013;SDS011;9132;47.946;10.394;2023-02-19T09:40:05;2.50;;;2.30;;
18013;SDS011;9132;47.946;10.394;2023-02-19T09:42:32;2.73;;;2.50;;
18013;SDS011;9132;47.946;10.394;2023-02-19T09:44:58;2.17;;;1.97;;
18013;SDS011;9132;47.946;10.394;2023-02-19T09:47:26;2.97;;;2.67;;
18013;SDS011;9132;47.946;10.394;2023-02-19T09:49:55;2.40;;;2.20;;
18013;SDS011;9132;47.946;10.394;2023-02-19T09:52:23;3.13;;;2.80;;
18013;SDS011;9132;47.946;10.394;2023-02-19T09:54:51;3.50;;;2.97;;
18013;SDS011;9132;47.946;10.394;2023-02-19T09:57:21;2.87;;;2.67;;
18013;SDS011;9132;47.946;10.394;2023-02-19T09:59:49;2.40;;;2.20;;
18013;SDS011;9132;47.946;10.394;2023-02-19T10:02:16;2.10;;;1.60;;
18013;SDS011;9132;47.946;10.394;2023-02-19T10:04:43;1.10;;;1.00;;
18013;SDS011;9132;47.946;10.394;2023-02-19T10:07:12;0.70;;;0.70;;
18013;SDS011;9132;47.946;10.394;2023-02-19T10:09:39;1.10;;;0.80;;
18013;SDS011;9132;47.946;10.394;2023-02-19T10:12:10;1.17;;;0.90;;
18013;SDS011;9132;47.946;10.394;2023-02-19T10:14:38;0.60;;;0.60;;
18013;SDS011;9132;47.946;10.394;2023-02-19T10:17:14;0.80;;;0.80;;
18013;SDS011;9132;47.946;10.394;2023-02-19T10:19:42;1.70;;;1.27;;
18013;SDS011;9132;47.946;10.394;2023-02-19T10:22:08;4.27;;;3.03;;
18013;SDS011;9132;47.946;10.394;2023-02-19T10:24:38;1.43;;;1.20;;
18013;SDS011;9132;47.946;10.394;2023-02-19T10:27:09;1.77;;;1.00;;
18013;SDS011;9132;47.946;10.394;2023-02-19T10:29:35;1.13;;;1.03;;
18013;SDS011;9132;47.946;10.394;2023-02-19T10:32:11;0.90;;;0.90;;
18013;SDS011;9132;47.946;10.394;2023-02-19T10:34:38;0.90;;;0.80;;
18013;SDS011;9132;47.946;10.394;2023-02-19T10:37:04;2.77;;;1.27;;
18013;SDS011;9132;47.946;10.394;2023-02-19T10:39:38;3.97;;;1.10;;
18013;SDS011;9132;47.946;10.394;2023-02-19T10:42:12;0.90;;;0.90;;
18013;SDS011;9132;47.946;10.394;2023-02-19T10:44:40;0.80;;;0.80;;
18013;SDS011;9132;47.946;10.394;2023-02-19T10:47:07;1.80;;;0.70;;
18013;SDS011;9132;47.946;10.394;2023-02-19T10:49:40;1.50;;;0.83;;
18013;SDS011;9132;47.946;10.394;2023-02-19T10:52:10;0.80;;;0.77;;
18013;SDS011;9132;47.946;10.394;2023-02-19T10:54:42;0.60;;;0.60;;
18013;SDS011;9132;47.946;10.394;2023-02-19T10:57:21;1.73;;;0.80;;
18013;SDS011;9132;47.946;10.394;2023-02-19T10:59:54;0.50;;;0.50;;
18013;SDS011;9132;47.946;10.394;2023-02-19T11:02:21;0.70;;;0.70;;
18013;SDS011;9132;47.946;10.394;2023-02-19T11:05:00;0.43;;;0.43;;
18013;SDS011;9132;47.946;10.394;2023-02-19T11:07:27;0.50;;;0.50;;
18013;SDS011;9132;47.946;10.394;2023-02-19T11:09:55;0.50;;;0.50;;
18013;SDS011;9132;47.946;10.394;2023-02-19T11:12:22;0.70;;;0.50;;
18013;SDS011;9132;47.946;10.394;2023-02-19T11:14:50;0.50;;;0.50;;
18013;SDS011;9132;47.946;10.394;2023-02-19T11:17:19;0.50;;;0.50;;
18013;SDS011;9132;47.946;10.394;2023-02-19T11:19:49;1.07;;;0.80;;
18013;SDS011;9132;47.946;10.394;2023-02-19T11:22:17;0.73;;;0.47;;
18013;SDS011;9132;47.946;10.394;2023-02-19T11:24:46;0.70;;;0.60;;
18013;SDS011;9132;47.946;10.394;2023-02-19T11:27:15;0.60;;;0.60;;
18013;SDS011;9132;47.946;10.394;2023-02-19T11:29:42;1.03;;;0.70;;
18013;SDS011;9132;47.946;10.394;2023-02-19T11:32:15;1.53;;;0.53;;
18013;SDS011;9132;47.946;10.394;2023-02-19T11:34:47;0.60;;;0.60;;
18013;SDS011;9132;47.946;10.394;2023-02-19T11:37:14;0.47;;;0.47;;
18013;SDS011;9132;47.946;10.394;2023-02-19T11:39:40;0.63;;;0.60;;
18013;SDS011;9132;47.946;10.394;2023-02-19T11:42:11;2.33;;;0.60;;
18013;SDS011;9132;47.946;10.394;2023-02-19T11:44:43;0.50;;;0.50;;
18013;SDS011;9132;47.946;10.394;2023-02-19T11:47:27;0.40;;;0.40;;
18013;SDS011;9132;47.946;10.394;2023-02-19T11:49:57;0.73;;;0.60;;
18013;SDS011;9132;47.946;10.394;2023-02-19T11:52:28;0.60;;;0.50;;
18013;SDS011;9132;47.946;10.394;2023-02-19T11:55:01;0.47;;;0.43;;
18013;SDS011;9132;47.946;10.394;2023-02-19T11:57:35;0.90;;;0.50;;
18013;SDS011;9132;47.946;10.394;2023-02-19T12:00:14;0.67;;;0.67;;
18013;SDS011;9132;47.946;10.394;2023-02-19T12:02:45;1.60;;;0.60;;
18013;SDS011;9132;47.946;10.394;2023-02-19T12:05:29;0.60;;;0.60;;
18013;SDS011;9132;47.946;10.394;2023-02-19T12:08:12;1.30;;;0.70;;
18013;SDS011;9132;47.946;10.394;2023-02-19T12:10:45;1.10;;;0.70;;
18013;SDS011;9132;47.946;10.394;2023-02-19T12:13:17;0.93;;;0.87;;
18013;SDS011;9132;47.946;10.394;2023-02-19T12:18:40;0.80;;;0.80;;
18013;SDS011;9132;47.946;10.394;2023-02-19T12:21:13;1.07;;;0.97;;
18013;SDS011;9132;47.946;10.394;2023-02-19T12:23:46;1.20;;;1.00;;
18013;SDS011;9132;47.946;10.394;2023-02-19T12:26:16;0.90;;;0.90;;
18013;SDS011;9132;47.946;10.394;2023-02-19T12:28:47;0.80;;;0.80;;
18013;SDS011;9132;47.946;10.394;2023-02-19T12:31:20;1.03;;;0.97;;
18013;SDS011;9132;47.946;10.394;2023-02-19T12:33:56;0.97;;;0.80;;
18013;SDS011;9132;47.946;10.394;2023-02-19T12:36:26;1.20;;;1.03;;
18013;SDS011;9132;47.946;10.394;2023-02-19T12:38:57;0.80;;;0.80;;
18013;SDS011;9132;47.946;10.394;2023-02-19T12:41:30;1.30;;;1.20;;
18013;SDS011;9132;47.946;10.394;2023-02-19T12:44:02;1.50;;;1.20;;
18013;SDS011;9132;47.946;10.394;2023-02-19T12:46:31;1.10;;;1.00;;
18013;SDS011;9132;47.946;10.394;2023-02-19T12:49:00;1.23;;;1.13;;
18013;SDS011;9132;47.946;10.394;2023-02-19T12:51:30;1.10;;;1.00;;
18013;SDS011;9132;47.946;10.394;2023-02-19T12:53:58;1.30;;;1.20;;
18013;SDS011;9132;47.946;10.394;2023-02-19T12:56:27;1.50;;;1.40;;
18013;SDS011;9132;47.946;10.394;2023-02-19T12:58:55;1.17;;;1.07;;
18013;SDS011;9132;47.946;10.394;2023-02-19T13:01:24;1.20;;;1.10;;
18013;SDS011;9132;47.946;10.394;2023-02-19T13:03:52;1.07;;;0.97;;
18013;SDS011;9132;47.946;10.394;2023-02-19T13:06:29;1.20;;;1.10;;
18013;SDS011;9132;47.946;10.394;2023-02-19T13:08:57;1.23;;;1.13;;
18013;SDS011;9132;47.946;10.394;2023-02-19T13:11:26;0.87;;;0.87;;
18013;SDS011;9132;47.946;10.394;2023-02-19T13:13:55;1.63;;;1.10;;
18013;SDS011;9132;47.946;10.394;2023-02-19T13:16:23;1.00;;;0.90;;
18013;SDS011;9132;47.946;10.394;2023-02-19T13:18:51;1.10;;;1.10;;
18013;SDS011;9132;47.946;10.394;2023-02-19T13:21:20;1.33;;;0.80;;
18013;SDS011;9132;47.946;10.394;2023-02-19T13:24:02;1.30;;;1.20;;
18013;SDS011;9132;47.946;10.394;2023-02-19T13:26:37;1.23;;;1.00;;
18013;SDS011;9132;47.946;10.394;2023-02-19T13:29:11;0.87;;;0.87;;
18013;SDS011;9132;47.946;10.394;2023-02-19T13:31:49;1.30;;;1.10;;
18013;SDS011;9132;47.946;10.394;2023-02-19T13:34:21;0.80;;;0.73;;
18013;SDS011;9132;47.946;10.394;2023-02-19T13:36:48;0.73;;;0.73;;
18013;SDS011;9132;47.946;10.394;2023-02-19T13:39:16;0.80;;;0.80;;
18013;SDS011;9132;47.946;10.394;2023-02-19T13:41:48;0.80;;;0.77;;
18013;SDS011;9132;47.946;10.394;2023-02-19T13:44:15;2.17;;;0.90;;
18013;SDS011;9132;47.946;10.394;2023-02-19T13:46:43;1.03;;;0.70;;
18013;SDS011;9132;47.946;10.394;2023-02-19T13:49:36;0.80;;;0.73;;
18013;SDS011;9132;47.946;10.394;2023-02-19T13:54:47;0.80;;;0.80;;
18013;SDS011;9132;47.946;10.394;2023-02-19T13:57:24;0.80;;;0.80;;
18013;SDS011;9132;47.946;10.394;2023-02-19T13:59:51;2.20;;;1.30;;
18013;SDS011;9132;47.946;10.394;2023-02-19T14:04:53;2.23;;;1.27;;
18013;SDS011;9132;47.946;10.394;2023-02-19T14:10:11;1.37;;;0.90;;
18013;SDS011;9132;47.946;10.394;2023-02-19T14:12:38;1.80;;;1.00;;
18013;SDS011;9132;47.946;10.394;2023-02-19T14:17:49;0.80;;;0.77;;
18013;SDS011;9132;47.946;10.394;2023-02-19T14:20:41;1.57;;;1.00;;
18013;SDS011;9132;47.946;10.394;2023-02-19T14:23:13;1.27;;;1.10;;
18013;SDS011;9132;47.946;10.394;2023-02-19T14:28:27;3.93;;;2.50;;
18013;SDS011;9132;47.946;10.394;2023-02-19T14:30:54;4.33;;;2.53;;
18013;SDS011;9132;47.946;10.394;2023-02-19T14:33:22;4.80;;;3.40;;
18013;SDS011;9132;47.946;10.394;2023-02-19T14:35:50;4.87;;;2.93;;
18013;SDS011;9132;47.946;10.394;2023-02-19T14:38:19;8.90;;;4.77;;
18013;SDS011;9132;47.946;10.394;2023-02-19T14:40:46;17.23;;;8.40;;
18013;SDS011;9132;47.946;10.394;2023-02-19T14:43:13;25.53;;;11.37;;
18013;SDS011;9132;47.946;10.394;2023-02-19T14:45:43;14.83;;;6.37;;
18013;SDS011;9132;47.946;10.394;2023-02-19T14:48:12;4.77;;;2.60;;
18013;SDS011;9132;47.946;10.394;2023-02-19T14:50:40;36.37;;;15.23;;
18013;SDS011;9132;47.946;10.394;2023-02-19T14:53:07;49.17;;;20.03;;
18013;SDS011;9132;47.946;10.394;2023-02-19T14:55:34;26.87;;;13.53;;
18013;SDS011;9132;47.946;10.394;2023-02-19T14:58:03;9.37;;;5.43;;
18013;SDS011;9132;47.946;10.394;2023-02-19T15:00:32;5.33;;;3.33;;
18013;SDS011;9132;47.946;10.394;2023-02-19T15:03:00;3.70;;;3.30;;
18013;SDS011;9132;47.946;10.394;2023-02-19T15:05:27;5.33;;;4.30;;
18013;SDS011;9132;47.946;10.394;2023-02-19T15:07:54;18.77;;;10.90;;
18013;SDS011;9132;47.946;10.394;2023-02-19T15:10:22;13.43;;;7.40;;
18013;SDS011;9132;47.946;10.394;2023-02-19T15:12:49;15.27;;;10.27;;